Time;durP1;ratioP1;P1;durP2;ratioP2;P2;SDS_P1;SDS_P2;PMS_P1;PMS_P2;Temp;Humidity;BMP_temperature;BMP_pressure;BME280_temperature;BME280_humidity;BME280_pressure;Samples;Min_cycle;Max_cycle;Signal;HPM_P1;HPM_P2
2021/04/11 00:00:08;;;;;;;3.90;1.90;;;14.00;49.60;;;13.31;41.79;97733.63;5000802;28;20418;-82
2021/04/11 00:02:35;;;;;;;2.75;1.80;;;14.00;49.90;;;13.52;41.06;97732.66;5002397;28;20426;-81
2021/04/11 00:05:01;;;;;;;4.65;1.90;;;14.20;49.60;;;13.43;41.09;97733.41;5001431;28;20666;-82
2021/04/11 00:07:27;;;;;;;3.72;1.70;;;14.20;49.20;;;13.27;41.65;97734.41;5001104;28;20414;-82
2021/04/11 00:09:53;;;;;;;3.22;1.88;;;14.10;49.60;;;13.28;42.16;97731.50;5001012;28;20434;-82
2021/04/11 00:12:19;;;;;;;6.30;2.58;;;14.10;50.30;;;13.36;42.52;97735.53;5000742;28;20437;-82
2021/04/11 00:14:45;;;;;;;4.78;2.40;;;14.10;50.90;;;13.04;43.67;97735.59;5001299;28;20509;-82
2021/04/11 00:17:12;;;;;;;6.38;2.17;;;13.90;51.80;;;12.94;43.76;97732.88;5000695;28;20523;-82
2021/04/11 00:19:38;;;;;;;4.75;2.10;;;13.80;52.30;;;12.72;44.64;97731.16;5000664;28;20820;-81
2021/04/11 00:22:06;;;;;;;4.18;2.25;;;13.60;52.80;;;12.38;45.16;97733.31;4999836;28;20460;-81
2021/04/11 00:24:33;;;;;;;4.68;2.22;;;13.30;53.30;;;12.26;46.06;97731.88;5000466;28;20497;-81
2021/04/11 00:26:59;;;;;;;4.53;2.42;;;13.20;54.20;;;12.29;45.93;97729.53;5000893;28;20418;-81
2021/04/11 00:29:25;;;;;;;2.53;1.90;;;13.10;54.40;;;12.21;46.10;97726.53;5000265;28;20415;-81
2021/04/11 00:31:51;;;;;;;3.88;2.13;;;13.10;54.80;;;12.07;46.15;97731.44;5000664;28;20430;-82
2021/04/11 00:34:17;;;;;;;4.07;2.30;;;13.00;54.50;;;12.06;46.12;97727.19;5000247;28;20421;-81
2021/04/11 00:36:45;;;;;;;5.82;2.58;;;12.90;54.90;;;12.06;46.70;97723.75;5000291;28;20775;-82
2021/04/11 00:39:11;;;;;;;4.45;2.28;;;12.80;55.40;;;12.08;46.73;97722.44;4983201;28;20454;-80
2021/04/11 00:41:41;;;;;;;5.05;2.20;;;12.80;55.40;;;12.13;45.90;97722.47;5000283;28;20494;-81
2021/04/11 00:44:08;;;;;;;2.95;1.88;;;12.90;54.80;;;12.18;45.79;97719.09;5001341;28;20419;-82
2021/04/11 00:46:43;;;;;;;4.50;2.10;;;13.00;54.60;;;12.07;46.25;97717.38;5000777;28;20498;-81
2021/04/11 00:49:17;;;;;;;3.77;2.10;;;12.90;54.80;;;12.09;46.29;97716.09;5002066;28;20523;-81
2021/04/11 00:51:44;;;;;;;7.15;2.80;;;12.90;54.70;;;12.08;46.33;97716.34;5000089;28;20799;-81
2021/04/11 00:54:11;;;;;;;6.95;2.53;;;12.90;55.10;;;12.07;46.37;97720.03;4983171;28;20525;-82
2021/04/11 00:56:38;;;;;;;3.00;2.15;;;12.80;55.20;;;11.93;46.60;97717.81;4999992;28;20419;-82
2021/04/11 00:59:06;;;;;;;5.30;2.20;;;12.80;55.50;;;11.84;47.44;97714.00;5000288;28;20499;-82
2021/04/11 01:01:33;;;;;;;5.20;2.33;;;12.70;56.10;;;11.81;47.50;97709.19;5001215;28;20431;-82
2021/04/11 01:03:59;;;;;;;3.33;2.27;;;12.60;56.30;;;11.79;47.54;97700.69;5000855;28;20634;-82
2021/04/11 01:06:31;;;;;;;6.03;2.10;;;12.60;56.40;;;11.83;47.44;97700.97;5000564;28;20443;-82
2021/04/11 01:08:58;;;;;;;4.38;2.20;;;12.60;56.60;;;11.55;48.26;97692.19;5000925;28;20421;-82
2021/04/11 01:11:28;;;;;;;4.07;2.13;;;12.50;56.70;;;11.59;47.89;97690.63;4999684;28;20433;-82
2021/04/11 01:13:59;;;;;;;7.30;2.20;;;12.40;56.90;;;11.61;48.14;97685.09;5000164;28;20452;-81
2021/04/11 01:16:27;;;;;;;3.30;2.40;;;12.50;56.80;;;11.53;47.96;97682.88;5000711;28;20425;-80
2021/04/11 01:18:54;;;;;;;4.45;2.28;;;12.50;56.90;;;11.48;48.26;97674.88;5001133;28;20525;-83
2021/04/11 01:21:30;;;;;;;5.57;2.50;;;12.40;57.30;;;11.45;48.71;97678.03;5000727;28;20431;-80
2021/04/11 01:24:12;;;;;;;5.47;2.40;;;12.40;57.70;;;11.55;48.04;97686.91;5000406;28;20414;-82
2021/04/11 01:26:42;;;;;;;5.45;2.53;;;12.40;57.10;;;11.61;48.25;97677.94;4999750;28;20465;-82
2021/04/11 01:29:09;;;;;;;3.70;2.20;;;12.40;57.30;;;11.63;48.19;97673.19;5000057;28;20406;-82
2021/04/11 01:31:36;;;;;;;5.72;2.53;;;12.40;57.10;;;11.58;48.44;97675.78;4999526;28;20422;-83
2021/04/11 01:34:06;;;;;;;6.28;2.20;;;12.40;57.50;;;11.61;47.98;97679.78;5000209;28;20511;-82
2021/04/11 01:36:35;;;;;;;4.53;2.22;;;12.50;57.10;;;11.63;48.32;97677.69;4983021;28;20445;-83
2021/04/11 01:39:08;;;;;;;6.25;2.40;;;12.50;57.30;;;11.68;48.09;97669.78;4982915;28;20429;-82
2021/04/11 01:41:37;;;;;;;3.57;2.10;;;12.50;57.20;;;11.74;47.90;97663.50;5000513;28;20427;-81
2021/04/11 01:44:07;;;;;;;3.60;2.33;;;12.60;57.00;;;11.77;47.72;97665.66;5000251;28;20505;-79
2021/04/11 01:46:33;;;;;;;4.22;2.30;;;12.60;56.60;;;11.89;47.23;97666.28;5000033;28;20429;-82
2021/04/11 01:49:00;;;;;;;4.63;2.17;;;12.60;56.50;;;12.02;46.80;97663.25;5001013;28;20411;-82
2021/04/11 01:51:31;;;;;;;4.93;2.10;;;12.70;56.10;;;11.94;46.87;97663.69;4998576;28;20434;-82
2021/04/11 01:53:58;;;;;;;3.25;2.05;;;12.80;55.70;;;12.13;46.35;97666.75;4999708;28;20639;-83
2021/04/11 01:56:25;;;;;;;4.35;2.10;;;12.90;55.40;;;12.23;46.03;97661.53;4999615;28;20419;-82
2021/04/11 01:58:51;;;;;;;2.50;1.87;;;13.00;54.90;;;12.24;46.03;97660.47;5000362;28;20430;-83
2021/04/11 02:01:22;;;;;;;2.78;1.80;;;13.10;55.20;;;12.30;45.69;97659.47;4999567;28;20518;-82
2021/04/11 02:03:53;;;;;;;3.40;1.70;;;13.10;54.70;;;12.41;45.11;97658.47;5000394;28;20436;-82
2021/04/11 02:06:20;;;;;;;3.05;1.85;;;13.20;54.40;;;12.45;45.41;97668.56;5000581;28;20425;-83
2021/04/11 02:08:52;;;;;;;4.03;2.17;;;13.20;54.30;;;12.48;45.31;97665.41;5001458;28;20422;-82
2021/04/11 02:11:19;;;;;;;10.05;2.92;;;13.30;54.20;;;12.49;45.37;97665.13;5001637;28;20422;-82
2021/04/11 02:13:45;;;;;;;2.97;1.90;;;13.40;54.20;;;12.52;45.23;97672.59;5001331;28;20418;-83
2021/04/11 02:16:15;;;;;;;4.40;2.05;;;13.30;54.20;;;12.58;44.95;97676.88;5007061;28;20415;-78
2021/04/11 02:18:42;;;;;;;2.40;1.73;;;13.30;53.90;;;12.60;45.11;97671.31;5008955;28;20456;-82
2021/04/11 02:21:16;;;;;;;2.92;1.80;;;13.40;53.80;;;12.61;44.85;97664.97;5008162;28;20422;-82
2021/04/11 02:23:43;;;;;;;3.65;1.90;;;13.40;53.70;;;12.62;44.75;97675.34;4992626;28;20429;-80
2021/04/11 02:26:13;;;;;;;3.55;1.90;;;13.40;53.60;;;12.76;44.62;97670.34;5011089;28;20414;-80
2021/04/11 02:28:40;;;;;;;3.33;1.77;;;13.50;53.60;;;12.76;44.27;97657.88;5012010;28;20438;-81
2021/04/11 02:31:17;;;;;;;3.28;1.77;;;13.50;53.40;;;12.69;44.82;97664.47;5012462;28;20422;-81
2021/04/11 02:34:00;;;;;;;2.97;1.80;;;13.50;53.50;;;12.68;44.99;97653.06;5010774;28;20422;-80
2021/04/11 02:36:33;;;;;;;4.30;2.00;;;13.50;53.80;;;12.70;44.64;97666.88;5000359;28;20427;-81
2021/04/11 02:39:01;;;;;;;4.30;1.83;;;13.50;53.50;;;12.64;45.00;97659.13;4998826;28;20845;-81
2021/04/11 02:41:27;;;;;;;5.45;1.90;;;13.40;53.80;;;12.51;46.58;97662.25;4997951;28;20441;-81
2021/04/11 02:43:55;;;;;;;5.97;2.20;;;13.40;55.10;;;12.58;48.40;97662.81;4997361;28;20770;-80
2021/04/11 02:46:21;;;;;;;5.38;1.73;;;13.40;57.30;;;12.45;48.52;97650.00;4997878;28;20422;-81
2021/04/11 02:48:53;;;;;;;3.95;1.90;;;13.40;57.30;;;12.24;48.39;97657.03;4999897;28;20403;-81
2021/04/11 02:51:23;;;;;;;3.92;2.20;;;13.20;56.70;;;11.94;49.90;97655.75;4984572;28;20906;-80
2021/04/11 02:53:52;;;;;;;3.90;1.92;;;12.90;58.40;;;11.95;51.29;97654.66;5000767;28;20812;-81
2021/04/11 02:56:19;;;;;;;4.25;2.30;;;12.80;60.30;;;11.94;50.95;97653.09;5004450;28;20414;-81
2021/04/11 02:58:46;;;;;;;7.60;2.83;;;12.90;60.00;;;11.82;50.75;97648.97;5013014;28;20458;-81
2021/04/11 03:01:18;;;;;;;4.95;1.80;;;12.70;60.00;;;11.59;52.37;97644.75;4994768;28;20437;-80
2021/04/11 03:03:45;;;;;;;3.57;2.10;;;12.50;61.20;;;11.41;52.60;97637.97;5012177;28;20437;-80
2021/04/11 03:06:17;;;;;;;3.60;2.45;;;12.40;61.80;;;11.44;53.03;97639.31;5012673;28;20587;-82
2021/04/11 03:08:49;;;;;;;3.65;1.90;;;12.30;62.60;;;11.29;53.25;97639.16;5010047;28;20445;-80
2021/04/11 03:11:25;;;;;;;3.25;2.00;;;12.20;62.90;;;11.11;54.47;97640.31;5005544;28;20471;-79
2021/04/11 03:13:52;;;;;;;2.97;1.90;;;12.00;64.10;;;11.22;53.77;97637.50;5005526;28;20425;-79
2021/04/11 03:16:19;;;;;;;3.03;2.03;;;12.10;64.30;;;11.18;53.77;97633.75;5003525;28;20501;-81
2021/04/11 03:18:45;;;;;;;3.85;1.90;;;12.10;63.90;;;11.13;54.21;97627.59;4985071;28;20461;-80
2021/04/11 03:21:12;;;;;;;3.80;2.00;;;12.00;64.20;;;11.14;54.58;97629.19;5001595;28;20434;-81
2021/04/11 03:23:39;;;;;;;4.50;1.97;;;12.10;64.60;;;11.04;54.75;97631.75;5000666;28;20592;-81
2021/04/11 03:26:12;;;;;;;5.73;2.07;;;12.00;65.00;;;11.34;54.45;97623.31;4998303;28;20551;-81
2021/04/11 03:28:44;;;;;;;3.88;2.10;;;12.10;65.40;;;11.16;55.12;97616.50;4998160;28;20406;-81
2021/04/11 03:31:15;;;;;;;3.80;2.25;;;12.10;65.20;;;11.14;55.24;97616.75;4997816;28;20414;-80
2021/04/11 03:33:46;;;;;;;4.93;2.15;;;12.10;65.30;;;11.13;54.92;97623.09;4998719;28;20554;-81
2021/04/11 03:36:16;;;;;;;5.43;2.03;;;12.10;65.30;;;11.03;55.40;97625.63;4997365;28;20435;-81
2021/04/11 03:38:44;;;;;;;3.72;2.45;;;12.00;65.80;;;10.98;56.10;97620.25;4997976;28;20429;-80
2021/04/11 03:41:12;;;;;;;7.25;2.42;;;11.90;66.50;;;10.98;56.42;97635.34;4997858;28;20456;-81
2021/04/11 03:43:43;;;;;;;5.63;2.10;;;11.80;67.50;;;10.89;56.71;97619.13;4999048;28;20422;-82
2021/04/11 03:46:17;;;;;;;5.85;2.40;;;11.80;67.50;;;10.84;57.05;97619.84;4981014;28;20533;-82
2021/04/11 03:48:49;;;;;;;7.85;2.22;;;11.80;68.00;;;11.18;56.39;97627.66;4998872;28;20426;-82
2021/04/11 03:51:22;;;;;;;4.95;2.10;;;11.90;67.90;;;11.29;56.14;97620.59;4998954;28;20529;-81
2021/04/11 03:53:54;;;;;;;2.78;2.20;;;12.10;67.60;;;11.17;56.41;97624.22;4999967;28;20411;-81
2021/04/11 03:56:26;;;;;;;6.40;2.38;;;12.10;67.20;;;11.16;56.40;97627.91;4982644;28;20418;-81
2021/04/11 03:58:59;;;;;;;7.22;2.40;;;12.00;67.50;;;10.86;57.87;97628.34;4999408;28;20458;-81
2021/04/11 04:01:31;;;;;;;3.50;2.20;;;11.90;68.70;;;10.94;57.16;97621.81;4997200;28;20427;-81
2021/04/11 04:04:03;;;;;;;3.58;2.25;;;11.80;69.00;;;11.15;56.42;97626.28;4997310;28;20417;-81
2021/04/11 04:06:34;;;;;;;6.50;2.55;;;12.00;68.20;;;11.00;56.10;97627.97;5009501;28;20432;-81
2021/04/11 04:09:05;;;;;;;3.15;2.20;;;11.90;67.40;;;10.92;56.71;97631.84;5010984;28;20398;-80
2021/04/11 04:14:29;;;;;;;4.53;2.40;;;11.80;67.40;;;11.01;55.79;97625.09;4984368;28;20427;-83
2021/04/11 04:17:05;;;;;;;3.40;2.20;;;11.90;67.20;;;11.12;55.28;97626.81;4980797;28;20428;-81
2021/04/11 04:20:07;;;;;;;3.60;2.30;;;11.90;66.90;;;11.07;54.71;97628.59;4992393;28;20421;-81
2021/04/11 04:23:11;;;;;;;4.00;2.20;;;12.00;66.00;;;11.14;55.00;97634.50;4977065;28;20428;-81
2021/04/11 04:26:03;;;;;;;5.00;2.30;;;12.00;66.40;;;11.22;53.59;97632.19;4980545;28;20539;-80
2021/04/11 04:28:56;;;;;;;7.90;2.20;;;12.00;65.50;;;11.31;53.92;97627.25;4982421;28;20440;-81
2021/04/11 04:35:01;;;;;;;2.92;2.10;;;12.20;61.80;;;11.53;50.55;97628.00;5767764;22;20432;-80
2021/04/11 04:37:41;;;;;;;5.93;2.38;;;12.30;60.70;;;11.63;50.13;97633.41;5088800;28;20411;-81
2021/04/11 04:40:12;;;;;;;5.22;2.00;;;12.50;60.00;;;11.67;50.14;97630.25;5086202;28;20416;-80
2021/04/11 04:42:45;;;;;;;4.60;2.30;;;12.50;60.00;;;11.69;50.13;97625.50;5086888;28;20400;-80
2021/04/11 04:45:21;;;;;;;4.10;2.07;;;12.60;60.00;;;11.68;51.03;97629.19;5085065;28;20689;-80
2021/04/11 04:47:55;;;;;;;6.03;2.30;;;12.60;61.10;;;11.79;50.06;97628.28;5086489;28;20575;-81
2021/04/11 04:50:26;;;;;;;7.53;2.30;;;12.60;60.30;;;11.81;49.80;97639.41;5087808;28;20410;-81
2021/04/11 04:53:07;;;;;;;5.07;2.23;;;12.60;59.40;;;11.82;50.09;97627.75;5087438;28;20789;-81
2021/04/11 04:55:37;;;;;;;12.63;2.60;;;12.70;60.00;;;12.12;50.19;97643.13;5082330;28;20798;-81
2021/04/11 04:58:11;;;;;;;5.88;2.40;;;12.70;60.30;;;12.01;50.59;97640.41;5103829;28;20421;-81
2021/04/11 05:00:40;;;;;;;4.70;2.42;;;12.80;60.60;;;11.99;50.87;97637.19;5103602;28;20429;-83
2021/04/11 05:03:14;;;;;;;6.68;2.25;;;12.80;60.90;;;12.01;51.14;97644.91;5103896;28;20420;-82
2021/04/11 05:05:45;;;;;;;3.83;2.03;;;12.80;61.00;;;11.94;50.98;97633.72;5104593;28;20422;-82
2021/04/11 05:08:17;;;;;;;5.53;2.60;;;12.80;61.20;;;12.02;50.97;97634.06;5104949;28;20420;-83
2021/04/11 05:10:48;;;;;;;4.68;2.40;;;12.80;61.50;;;11.78;51.77;97638.09;5105475;28;20424;-82
2021/04/11 05:13:21;;;;;;;6.30;2.50;;;12.70;61.40;;;11.78;51.84;97640.75;5105244;28;20402;-82
2021/04/11 05:15:52;;;;;;;5.25;2.47;;;12.60;62.00;;;11.88;51.77;97651.41;5104536;28;20428;-83
2021/04/11 05:18:25;;;;;;;6.75;2.78;;;12.60;62.30;;;11.81;51.59;97637.56;5085987;28;20421;-82
2021/04/11 05:20:58;;;;;;;6.65;2.80;;;12.70;61.80;;;11.83;51.45;97637.31;5103401;28;20441;-83
2021/04/11 05:23:31;;;;;;;6.07;2.58;;;12.60;61.50;;;11.85;51.42;97638.69;5085008;28;20466;-82
2021/04/11 05:26:05;;;;;;;11.05;3.08;;;12.70;61.60;;;12.21;50.97;97637.09;5109854;28;20501;-83
2021/04/11 05:28:41;;;;;;;7.18;2.70;;;12.80;62.10;;;12.03;51.67;97640.13;5110181;28;20438;-82
2021/04/11 05:31:13;;;;;;;4.35;2.60;;;12.90;61.90;;;11.86;51.81;97642.94;5109498;28;20467;-84
2021/04/11 05:33:42;;;;;;;6.82;3.20;;;12.70;62.30;;;11.66;51.91;97640.06;5091175;28;20442;-84
2021/04/11 05:36:20;;;;;;;8.77;3.13;;;12.50;61.80;;;11.77;51.74;97646.28;5111718;28;20413;-83
2021/04/11 05:39:00;;;;;;;8.13;2.75;;;12.60;62.10;;;11.88;51.69;97651.41;5089955;28;20441;-84
2021/04/11 05:41:36;;;;;;;6.95;3.03;;;12.60;61.90;;;11.96;50.94;97648.31;5107158;28;20426;-84
2021/04/11 05:44:14;;;;;;;8.80;3.25;;;12.80;61.30;;;12.07;50.70;97657.16;5106089;28;20445;-84
2021/04/11 05:46:48;;;;;;;5.13;3.00;;;12.80;60.80;;;12.13;50.72;97653.47;5105562;28;20808;-83
2021/04/11 05:49:23;;;;;;;8.35;3.55;;;12.90;60.60;;;12.23;50.36;97652.75;5100565;28;20528;-82
2021/04/11 05:51:56;;;;;;;6.75;3.55;;;13.00;60.30;;;12.26;50.56;97654.91;5103644;28;20823;-81
2021/04/11 05:54:27;;;;;;;6.93;3.40;;;13.10;60.40;;;12.25;50.30;97656.78;5103470;28;20432;-82
2021/04/11 05:57:00;;;;;;;6.93;3.38;;;13.10;60.20;;;12.35;49.83;97654.19;5103081;28;20487;-81
2021/04/11 05:59:34;;;;;;;7.50;3.08;;;13.10;59.80;;;12.37;49.32;97654.72;5102596;28;20426;-82
2021/04/11 06:02:02;;;;;;;8.73;3.13;;;13.20;59.20;;;12.38;49.67;97647.56;5111033;28;20406;-80
2021/04/11 06:04:39;;;;;;;8.52;3.50;;;13.20;59.30;;;12.47;49.24;97650.53;5108508;28;20680;-80
2021/04/11 06:07:12;;;;;;;9.43;4.00;;;13.30;59.20;;;12.43;49.55;97654.75;5109655;28;20733;-81
2021/04/11 06:09:45;;;;;;;7.68;3.72;;;13.30;59.20;;;12.45;49.56;97660.63;5090838;28;20425;-79
2021/04/11 06:12:26;;;;;;;5.78;3.28;;;13.20;59.20;;;12.45;49.33;97645.47;5109746;28;20434;-79
2021/04/11 06:15:00;;;;;;;8.52;3.92;;;13.30;59.20;;;12.59;49.21;97648.47;5109240;28;20415;-80
2021/04/11 06:17:27;;;;;;;6.97;3.60;;;13.40;59.10;;;12.59;49.30;97645.81;5106811;28;20406;-80
2021/04/11 06:19:54;;;;;;;5.88;3.08;;;13.40;59.10;;;12.69;49.06;97641.38;5102954;28;20468;-79
2021/04/11 06:22:29;;;;;;;5.95;2.70;;;13.40;58.80;;;12.76;48.03;97633.97;5103696;28;20424;-85
2021/04/11 06:25:04;;;;;;;7.32;2.53;;;13.50;58.10;;;12.95;47.60;97641.47;5100827;28;20397;-84
2021/04/11 06:27:44;;;;;;;4.25;2.20;;;13.60;57.40;;;12.95;47.19;97636.16;5100328;28;20448;-84
2021/04/11 06:30:15;;;;;;;5.82;2.30;;;13.70;56.90;;;13.08;46.60;97631.16;5100728;28;20410;-84
2021/04/11 06:32:48;;;;;;;5.25;2.60;;;13.80;56.60;;;13.14;46.29;97640.00;5100439;28;20431;-84
2021/04/11 06:35:22;;;;;;;4.63;1.90;;;13.90;56.10;;;13.31;45.96;97632.59;5100818;28;20528;-84
2021/04/11 06:37:55;;;;;;;4.25;1.90;;;14.00;55.70;;;13.36;45.84;97629.97;5100379;28;20468;-84
2021/04/11 06:40:51;;;;;;;3.50;1.90;;;14.00;55.60;;;13.54;45.21;97628.66;5082519;28;20935;-84
2021/04/11 06:43:42;;;;;;;6.20;2.55;;;14.20;55.10;;;13.77;44.76;97630.00;5083178;28;20414;-85
2021/04/11 06:46:24;;;;;;;6.47;2.13;;;14.40;54.80;;;13.88;44.66;97623.63;5100882;28;20455;-82
2021/04/11 06:49:14;;;;;;;5.32;2.30;;;14.50;54.40;;;13.94;44.32;97623.38;5100092;28;20815;-83
2021/04/11 06:52:28;;;;;;;4.43;1.98;;;14.60;54.00;;;14.02;44.41;97627.38;5099825;28;20410;-83
2021/04/11 06:55:33;;;;;;;8.18;2.50;;;14.70;54.00;;;14.03;44.56;97636.94;5098870;28;20421;-84
2021/04/11 06:58:11;;;;;;;6.30;2.47;;;14.70;53.90;;;14.18;44.10;97623.63;5079262;28;20406;-84
2021/04/11 07:00:57;;;;;;;7.40;3.03;;;14.80;53.90;;;14.34;43.94;97627.06;5101217;28;20615;-80
2021/04/11 07:04:33;;;;;;;4.40;2.33;;;15.00;53.40;;;14.63;43.31;97624.63;5101826;28;20409;-80
2021/04/11 07:07:49;;;;;;;2.80;1.65;;;15.20;53.10;;;14.80;43.02;97625.13;5100307;28;20418;-81
2021/04/11 07:10:38;;;;;;;5.93;1.97;;;15.40;52.60;;;14.99;42.65;97623.44;5100057;28;20754;-82
2021/04/11 07:14:04;;;;;;;5.25;2.15;;;15.60;52.30;;;15.05;42.59;97622.34;5101244;28;20421;-83
2021/04/11 07:17:01;;;;;;;4.97;1.77;;;15.80;51.90;;;14.97;42.35;97625.56;5102998;28;20499;-82
2021/04/11 07:20:23;;;;;;;4.10;1.88;;;15.70;51.40;;;15.14;42.09;97633.25;5102338;28;20532;-81
2021/04/11 07:23:40;;;;;;;6.78;2.20;;;15.80;51.50;;;14.93;42.68;97629.06;5103223;28;20497;-81
2021/04/11 07:26:26;;;;;;;3.92;1.92;;;15.60;51.60;;;14.86;42.71;97628.56;5104564;28;20636;-82
2021/04/11 07:29:13;;;;;;;3.78;1.80;;;15.60;51.80;;;14.93;42.69;97627.19;5100669;28;20413;-80
2021/04/11 07:32:14;;;;;;;5.22;1.98;;;15.60;51.80;;;14.94;42.44;97625.34;5102417;28;20402;-82
2021/04/11 07:35:17;;;;;;;4.10;1.80;;;15.70;51.70;;;15.21;41.83;97628.41;5102031;28;20413;-82
2021/04/11 07:38:05;;;;;;;4.35;1.92;;;15.90;51.20;;;15.48;41.40;97625.34;5058721;28;20417;-83
2021/04/11 07:40:52;;;;;;;4.10;2.03;;;16.10;50.90;;;15.71;40.87;97618.53;5101667;28;20405;-81
2021/04/11 07:43:33;;;;;;;6.97;2.33;;;16.30;50.40;;;16.02;40.16;97622.53;5103013;28;20948;-81
2021/04/11 07:46:30;;;;;;;7.82;2.03;;;16.50;49.80;;;16.13;40.00;97621.41;5103042;28;20398;-83
2021/04/11 07:49:35;;;;;;;4.50;2.00;;;16.70;49.20;;;16.42;39.56;97629.41;5094508;28;20490;-84
2021/04/11 07:52:17;;;;;;;4.60;1.70;;;16.90;48.90;;;16.67;39.10;97633.72;5094426;28;20418;-83
2021/04/11 07:55:05;;;;;;;4.15;1.60;;;17.20;48.20;;;16.83;38.47;97619.13;5104378;28;20433;-83
2021/04/11 07:57:56;;;;;;;4.35;1.90;;;17.40;47.50;;;17.01;38.31;97621.03;5102802;28;20467;-83
2021/04/11 08:00:41;;;;;;;5.80;1.95;;;17.60;47.90;;;17.25;37.59;97625.53;5101287;28;20430;-82
2021/04/11 08:03:22;;;;;;;3.90;1.55;;;17.80;46.70;;;17.36;37.86;97624.34;5103493;28;20414;-83
2021/04/11 08:06:20;;;;;;;3.67;1.48;;;17.90;46.80;;;17.49;37.08;97631.63;5104829;28;20437;-82
2021/04/11 08:09:17;;;;;;;4.33;1.33;;;18.00;46.20;;;17.20;37.73;97626.41;5105153;28;20459;-81
2021/04/11 08:12:21;;;;;;;8.15;1.30;;;17.90;46.00;;;17.20;39.23;97613.03;5112187;28;20402;-79
2021/04/11 08:14:55;;;;;;;4.20;1.60;;;17.90;46.40;;;16.57;40.24;97620.44;5111545;28;20410;-82
2021/04/11 08:17:51;;;;;;;5.43;1.37;;;17.20;48.50;;;16.62;39.42;97613.19;5090240;28;20414;-81
2021/04/11 08:21:10;;;;;;;2.70;1.20;;;17.30;47.90;;;16.72;39.58;97620.31;5103066;28;20803;-81
2021/04/11 08:24:26;;;;;;;6.18;1.70;;;17.30;48.50;;;16.86;38.93;97625.75;5103129;28;20402;-80
2021/04/11 08:27:54;;;;;;;2.50;1.48;;;17.50;47.70;;;16.94;38.66;97620.56;5104919;28;20856;-81
2021/04/11 08:30:42;;;;;;;3.17;1.05;;;17.50;47.60;;;16.97;38.38;97624.56;5082801;28;20425;-79
2021/04/11 08:33:43;;;;;;;6.27;1.40;;;17.60;47.00;;;16.98;38.56;97620.81;5103011;28;20405;-81
2021/04/11 08:36:54;;;;;;;3.97;1.20;;;17.60;47.00;;;16.96;38.60;97617.63;5113759;28;20396;-81
2021/04/11 08:39:53;;;;;;;2.78;1.00;;;17.70;47.00;;;16.69;39.08;97614.75;5093574;28;20432;-80
2021/04/11 08:43:01;;;;;;;2.45;1.30;;;17.40;47.40;;;16.97;38.84;97621.91;5100723;28;20434;-80
2021/04/11 08:45:46;;;;;;;2.35;1.30;;;17.50;47.50;;;16.91;38.41;97618.50;5102868;28;20441;-81
2021/04/11 08:48:45;;;;;;;3.65;1.40;;;17.60;46.80;;;17.07;38.13;97616.41;5104876;28;20429;-82
2021/04/11 08:51:22;;;;;;;3.72;1.40;;;17.70;47.00;;;17.25;38.08;97615.63;5095199;28;20800;-83
2021/04/11 08:54:18;;;;;;;2.33;1.10;;;17.80;46.70;;;16.85;38.94;97610.78;5103304;28;20512;-80
2021/04/11 08:56:52;;;;;;;3.50;1.38;;;17.60;47.00;;;16.91;38.94;97615.81;5104984;28;20398;-81
2021/04/11 08:59:37;;;;;;;3.10;1.30;;;17.50;47.50;;;17.02;38.54;97616.47;5104802;28;20422;-80
2021/04/11 09:02:32;;;;;;;2.85;1.60;;;17.60;47.10;;;16.81;39.05;97610.59;5104423;28;20409;-80
2021/04/11 09:05:11;;;;;;;3.80;1.60;;;17.50;47.20;;;16.85;39.14;97616.13;5084456;28;20437;-79
2021/04/11 09:07:56;;;;;;;3.05;1.13;;;17.50;47.60;;;16.90;38.77;97613.41;5100412;28;23451;-79
2021/04/11 09:10:39;;;;;;;2.13;1.42;;;17.50;47.20;;;16.49;39.57;97607.69;5103214;28;20406;-79
2021/04/11 09:13:22;;;;;;;3.05;1.40;;;17.30;47.60;;;16.59;39.53;97615.63;5102195;28;20857;-80
2021/04/11 09:16:00;;;;;;;3.78;1.30;;;17.20;48.00;;;16.88;39.01;97611.03;5104288;28;20405;-82
2021/04/11 09:19:00;;;;;;;5.03;1.80;;;17.50;47.90;;;17.15;38.54;97614.97;5102934;28;20432;-82
2021/04/11 09:21:47;;;;;;;4.13;1.77;;;17.70;47.20;;;17.37;37.98;97613.31;5086724;28;20430;-83
2021/04/11 09:24:19;;;;;;;7.32;1.55;;;17.90;46.60;;;17.51;37.62;97617.97;5104030;28;20439;-79
2021/04/11 09:27:33;;;;;;;5.38;1.77;;;18.10;46.20;;;17.60;37.39;97632.28;5101588;28;20421;-80
2021/04/11 09:30:12;;;;;;;6.35;1.80;;;18.20;46.00;;;17.65;37.11;97627.69;5103293;28;20413;-82
2021/04/11 09:33:43;;;;;;;6.97;2.63;;;18.30;45.40;;;17.55;36.99;97617.09;5104133;28;20442;-80
2021/04/11 09:36:23;;;;;;;5.95;1.48;;;18.30;45.20;;;17.69;36.87;97619.84;5100008;28;20430;-82
2021/04/11 09:39:30;;;;;;;4.78;1.85;;;18.30;45.10;;;17.67;36.68;97622.81;5089010;28;20418;-80
2021/04/11 09:42:37;;;;;;;2.63;1.20;;;18.30;45.00;;;17.73;36.67;97620.88;5107295;28;20469;-80
2021/04/11 09:45:20;;;;;;;5.85;1.83;;;18.40;44.90;;;17.98;36.39;97617.78;5085431;28;20422;-80
2021/04/11 09:48:24;;;;;;;5.78;1.40;;;18.50;44.80;;;17.89;36.34;97618.78;5106958;28;20437;-82
2021/04/11 09:51:04;;;;;;;27.25;3.17;;;18.50;44.50;;;17.86;36.71;97612.09;5106770;28;20644;-81
2021/04/11 09:53:57;;;;;;;17.83;2.20;;;18.40;44.90;;;18.02;36.46;97618.81;5086119;28;20398;-83
2021/04/11 09:57:01;;;;;;;5.18;1.30;;;18.60;44.80;;;18.00;36.41;97604.13;5090938;28;20429;-81
2021/04/11 10:00:00;;;;;;;4.38;1.20;;;18.70;44.50;;;18.02;36.28;97608.09;5104300;28;20536;-81
2021/04/11 10:02:42;;;;;;;6.45;1.98;;;18.70;44.30;;;17.99;36.38;97597.97;5106214;28;20512;-82
2021/04/11 10:05:22;;;;;;;4.18;1.67;;;18.60;44.30;;;18.08;36.18;97606.91;5086208;28;20458;-81
2021/04/11 10:08:14;;;;;;;4.18;1.55;;;18.60;44.30;;;18.14;36.22;97607.63;5084640;28;20758;-82
2021/04/11 10:10:53;;;;;;;3.42;1.42;;;18.70;44.30;;;18.48;35.59;97605.41;5102700;28;20402;-81
2021/04/11 10:14:13;;;;;;;5.20;1.50;;;18.90;43.80;;;18.50;35.45;97603.22;5100364;28;20406;-81
2021/04/11 10:16:57;;;;;;;4.55;1.65;;;19.30;43.30;;;18.34;35.26;97601.94;5093907;28;20429;-82
2021/04/11 10:19:55;;;;;;;2.77;1.60;;;19.10;42.90;;;18.27;34.88;97598.03;5083567;28;20417;-81
2021/04/11 10:22:37;;;;;;;5.85;1.40;;;18.90;42.70;;;18.42;34.72;97592.38;5082848;28;20433;-81
2021/04/11 10:25:38;;;;;;;3.05;1.20;;;19.00;42.70;;;17.93;35.46;97595.66;5101370;28;20413;-83
2021/04/11 10:28:20;;;;;;;4.88;1.75;;;18.80;42.60;;;17.94;35.29;97600.72;5055800;28;20414;-81
2021/04/11 10:30:57;;;;;;;2.25;1.25;;;18.60;43.10;;;17.94;34.94;97589.22;5083096;28;20418;-82
2021/04/11 10:33:31;;;;;;;6.13;1.60;;;18.70;42.70;;;17.58;36.11;97587.06;5101595;28;20785;-81
2021/04/11 10:36:05;;;;;;;4.10;1.40;;;18.30;43.60;;;17.76;37.30;97594.31;5100851;28;20418;-83
2021/04/11 10:38:41;;;;;;;4.20;1.40;;;18.40;43.90;;;17.94;35.25;97602.59;5101604;28;20424;-81
2021/04/11 10:41:48;;;;;;;6.00;1.50;;;18.50;43.00;;;17.87;34.92;97591.47;5081824;28;20425;-81
2021/04/11 10:44:59;;;;;;;6.00;1.80;;;18.60;42.70;;;17.97;34.64;97594.78;5083367;28;20410;-82
2021/04/11 10:47:59;;;;;;;6.10;1.60;;;18.60;42.30;;;18.07;34.64;97583.09;5099250;28;20638;-80
2021/04/11 10:50:32;;;;;;;3.63;1.10;;;18.70;42.30;;;17.85;34.83;97590.97;5082252;28;20438;-83
2021/04/11 10:53:33;;;;;;;4.30;1.50;;;18.60;42.00;;;17.93;34.46;97583.06;5083504;28;20512;-81
2021/04/11 10:56:39;;;;;;;3.80;1.40;;;18.60;42.20;;;17.77;35.19;97581.72;5099991;28;20444;-82
2021/04/11 10:59:56;;;;;;;3.22;1.55;;;18.40;42.70;;;17.79;34.99;97583.03;5064566;28;20700;-80
2021/04/11 11:03:13;;;;;;;3.75;1.40;;;18.40;42.40;;;17.84;35.10;97581.34;5100911;28;20409;-83
2021/04/11 11:05:54;;;;;;;5.00;1.75;;;18.40;42.50;;;17.80;34.98;97589.19;5084085;28;20616;-81
2021/04/11 11:08:38;;;;;;;3.10;1.52;;;18.50;42.40;;;17.87;34.83;97586.91;5100199;28;20413;-81
2021/04/11 11:11:55;;;;;;;4.37;1.40;;;18.40;42.50;;;17.88;34.98;97585.84;5101202;28;20873;-80
2021/04/11 11:15:05;;;;;;;6.05;1.65;;;18.40;42.60;;;17.83;35.10;97585.91;5093833;28;20513;-81
2021/04/11 11:18:24;;;;;;;2.78;1.33;;;18.50;42.70;;;17.92;35.22;97583.34;5100594;28;20414;-80
2021/04/11 11:21:07;;;;;;;4.97;1.80;;;18.50;43.00;;;17.89;35.21;97575.91;5100698;28;20416;-81